createdAt,value
2022-11-02T00:04:11.966Z,9.05
2022-11-02T00:09:10.826Z,9.03
2022-11-02T00:14:09.525Z,9.04
2022-11-02T00:19:09.882Z,8.77
2022-11-02T00:24:10.380Z,8.95
2022-11-02T00:29:09.646Z,8.86
2022-11-02T00:34:08.333Z,8.98
2022-11-02T00:39:07.174Z,8.90
2022-11-02T00:44:06.304Z,8.87
2022-11-02T00:49:05.116Z,8.72
2022-11-02T00:54:06.522Z,8.71
2022-11-02T00:59:06.151Z,8.56
2022-11-02T01:04:04.905Z,8.39
2022-11-02T01:09:04.017Z,8.37
2022-11-02T01:14:02.960Z,8.39
2022-11-02T01:19:01.946Z,8.12
2022-11-02T01:24:00.619Z,8.10
2022-11-02T01:28:59.343Z,8.08
2022-11-02T01:33:57.997Z,7.71
2022-11-02T01:38:56.788Z,7.89
2022-11-02T01:43:59.048Z,7.95
2022-11-02T01:54:27.510Z,8.04
2022-11-02T01:59:42.518Z,7.89
2022-11-02T02:04:43.206Z,7.77
2022-11-02T02:09:44.936Z,7.78
2022-11-02T02:14:46.603Z,7.74
2022-11-02T02:19:56.432Z,7.63
2022-11-02T02:25:04.736Z,7.70
2022-11-02T02:30:12.082Z,7.69
2022-11-02T02:35:27.145Z,7.75
2022-11-02T02:40:35.500Z,7.66
2022-11-02T02:45:44.784Z,7.81
2022-11-02T02:50:55.205Z,7.80
2022-11-02T02:55:55.144Z,7.80
2022-11-02T03:00:55.147Z,7.64
2022-11-02T03:06:09.206Z,7.67
2022-11-02T03:11:16.555Z,7.58
2022-11-02T03:16:27.316Z,7.57
2022-11-02T03:22:01.072Z,7.64
2022-11-02T03:27:03.174Z,7.49
2022-11-02T03:32:13.552Z,7.68
2022-11-02T03:37:53.061Z,7.75
2022-11-02T03:42:53.683Z,7.69
2022-11-02T03:47:58.168Z,7.88
2022-11-02T03:53:05.578Z,7.58
2022-11-02T03:58:05.316Z,7.34
2022-11-02T04:03:07.999Z,7.31
2022-11-02T04:08:21.509Z,7.20
2022-11-02T04:13:42.354Z,7.29
2022-11-02T04:19:01.062Z,7.37
2022-11-02T04:24:19.605Z,7.45
2022-11-02T04:29:20.094Z,7.22
2022-11-02T04:34:19.937Z,7.21
2022-11-02T04:39:18.662Z,7.05
2022-11-02T04:44:17.550Z,6.94
2022-11-02T04:49:22.988Z,7.13
2022-11-02T04:54:22.438Z,7.05
2022-11-02T04:59:30.775Z,6.92
2022-11-02T05:04:30.554Z,6.93
2022-11-02T05:09:29.841Z,6.88
2022-11-02T05:14:29.628Z,7.03
2022-11-02T05:19:30.719Z,7.16
2022-11-02T05:24:33.056Z,10.92
2022-11-02T05:29:32.456Z,11.84
2022-11-02T05:34:31.684Z,12.60
2022-11-02T05:39:31.476Z,12.11
2022-11-02T05:44:30.774Z,12.51
2022-11-02T05:49:30.815Z,12.78
2022-11-02T05:54:29.499Z,12.71
2022-11-02T05:59:28.179Z,9.78
2022-11-02T06:04:27.053Z,8.61
2022-11-02T06:09:25.819Z,8.01
2022-11-02T06:14:24.561Z,7.47
2022-11-02T06:19:23.251Z,7.38
2022-11-02T06:24:21.979Z,7.45
2022-11-02T06:29:20.732Z,7.22
2022-11-02T06:34:19.386Z,7.45
2022-11-02T06:39:18.129Z,7.67
2022-11-02T06:44:16.831Z,7.95
2022-11-02T06:49:15.835Z,8.14
2022-11-02T06:54:15.106Z,8.13
2022-11-02T06:59:13.881Z,7.99
2022-11-02T07:04:12.550Z,8.42
2022-11-02T07:09:11.373Z,8.40
2022-11-02T07:14:10.343Z,8.48
2022-11-02T07:19:09.142Z,8.30
2022-11-02T07:24:07.847Z,8.37
2022-11-02T07:29:06.939Z,8.47
2022-11-02T07:34:05.688Z,8.94
2022-11-02T07:39:04.959Z,9.13
2022-11-02T07:44:03.777Z,9.42
2022-11-02T07:49:06.779Z,9.80
2022-11-02T07:54:05.634Z,9.91
2022-11-02T07:59:05.007Z,10.19
2022-11-02T08:04:03.899Z,10.31
2022-11-02T08:09:03.286Z,10.57
2022-11-02T08:14:02.701Z,10.77
2022-11-02T08:19:01.399Z,10.97
2022-11-02T08:24:00.150Z,11.25
2022-11-02T08:28:59.304Z,11.58
2022-11-02T08:33:58.730Z,11.86
2022-11-02T08:38:57.435Z,12.02
2022-11-02T08:43:57.619Z,12.11
2022-11-02T08:48:56.404Z,12.47
2022-11-02T08:53:55.246Z,12.72
2022-11-02T08:58:53.950Z,13.03
2022-11-02T09:03:52.624Z,13.50
2022-11-02T09:08:53.798Z,13.89
2022-11-02T09:13:57.125Z,14.20
2022-11-02T09:18:56.080Z,14.30
2022-11-02T09:23:54.792Z,14.47
2022-11-02T09:28:54.751Z,14.59
2022-11-02T09:33:53.468Z,14.96
2022-11-02T09:38:52.393Z,15.08
2022-11-02T09:44:17.014Z,15.10
2022-11-02T09:49:19.073Z,14.95
2022-11-02T09:54:36.739Z,15.10
2022-11-02T09:59:35.446Z,14.86
2022-11-02T10:04:58.845Z,14.68
2022-11-02T10:10:00.308Z,14.57
2022-11-02T10:15:11.210Z,14.37
2022-11-02T10:20:31.606Z,14.48
2022-11-02T10:25:30.750Z,14.55
2022-11-02T10:30:30.024Z,14.75
2022-11-02T10:36:16.808Z,14.78
2022-11-02T10:41:27.633Z,14.97
2022-11-02T10:46:38.291Z,15.29
2022-11-02T10:51:37.081Z,15.40
2022-11-02T10:56:35.830Z,15.25
2022-11-02T11:01:34.591Z,15.31
2022-11-02T11:06:39.016Z,15.56
2022-11-02T11:11:38.419Z,15.44
2022-11-02T11:16:39.665Z,15.33
2022-11-02T11:21:41.030Z,15.57
2022-11-02T11:26:39.916Z,15.46
2022-11-02T11:31:38.659Z,15.27
2022-11-02T11:36:37.547Z,15.70
2022-11-02T11:41:40.545Z,15.47
2022-11-02T11:46:44.326Z,15.29
2022-11-02T11:51:45.099Z,15.00
2022-11-02T11:56:44.013Z,14.82
2022-11-02T12:01:42.858Z,14.64
2022-11-02T12:07:07.096Z,14.59
2022-11-02T12:12:17.714Z,14.70
2022-11-02T12:17:31.691Z,15.06
2022-11-02T12:22:59.610Z,15.26
2022-11-02T12:28:04.972Z,15.48
2022-11-02T12:33:23.923Z,15.05
2022-11-02T12:38:38.840Z,14.94
2022-11-02T12:43:49.641Z,14.66
2022-11-02T12:49:00.500Z,14.98
2022-11-02T12:54:04.562Z,15.52
2022-11-02T12:59:03.957Z,15.34
2022-11-02T13:04:36.848Z,15.68
2022-11-02T13:09:48.917Z,15.51
2022-11-02T13:14:53.562Z,15.42
2022-11-02T13:19:56.425Z,15.18
2022-11-02T13:25:06.406Z,14.95
2022-11-02T13:30:16.928Z,14.83
2022-11-02T13:35:22.630Z,14.63
2022-11-02T13:40:26.447Z,14.53
2022-11-02T13:45:40.226Z,14.41
2022-11-02T13:50:55.338Z,14.76
2022-11-02T13:55:59.747Z,14.88
2022-11-02T14:01:04.067Z,14.95
2022-11-02T14:06:11.173Z,14.95
2022-11-02T14:11:45.075Z,14.91
2022-11-02T14:16:46.704Z,14.72
2022-11-02T14:21:52.406Z,14.77
2022-11-02T14:26:56.912Z,14.70
2022-11-02T14:32:00.705Z,14.54
2022-11-02T14:37:18.180Z,14.53
2022-11-02T14:42:34.828Z,14.43
2022-11-02T14:47:37.399Z,14.36
2022-11-02T14:52:37.502Z,14.17
2022-11-02T14:57:40.316Z,14.10
2022-11-02T15:02:43.058Z,13.99
2022-11-02T15:07:49.556Z,13.84
2022-11-02T15:12:49.156Z,13.63
2022-11-02T15:17:47.827Z,13.76
2022-11-02T15:22:58.791Z,13.41
2022-11-02T15:28:07.277Z,13.27
2022-11-02T15:33:07.019Z,13.38
2022-11-02T15:38:30.450Z,12.99
2022-11-02T15:49:04.716Z,12.32
2022-11-02T15:54:15.565Z,12.08
2022-11-02T15:59:45.117Z,11.94
2022-11-02T16:04:47.149Z,11.67
2022-11-02T16:09:46.671Z,11.51
2022-11-02T16:14:52.480Z,11.42
2022-11-02T16:19:52.677Z,11.42
2022-11-02T16:24:53.848Z,11.20
2022-11-02T16:29:52.668Z,10.92
2022-11-02T16:34:51.497Z,10.84
2022-11-02T16:39:51.372Z,10.89
2022-11-02T16:44:59.107Z,10.79
2022-11-02T16:49:59.025Z,10.74
2022-11-02T16:54:58.356Z,10.77
2022-11-02T16:59:59.425Z,10.69
2022-11-02T17:05:02.469Z,13.19
2022-11-02T17:10:06.118Z,12.92
2022-11-02T17:15:16.092Z,11.57
2022-11-02T17:20:15.323Z,10.80
2022-11-02T17:25:30.546Z,10.45
2022-11-02T17:30:35.482Z,10.13
2022-11-02T17:35:34.480Z,9.99
2022-11-02T17:40:33.265Z,9.84
2022-11-02T17:45:33.899Z,9.60
2022-11-02T17:50:35.103Z,9.49
2022-11-02T17:55:35.102Z,9.54
2022-11-02T18:00:36.499Z,9.48
2022-11-02T18:05:37.348Z,9.46
2022-11-02T18:10:41.729Z,9.37
2022-11-02T18:15:40.530Z,9.34
2022-11-02T18:20:41.779Z,9.51
2022-11-02T18:25:41.033Z,9.43
2022-11-02T18:30:43.254Z,9.55
2022-11-02T18:35:42.691Z,9.64
2022-11-02T18:40:41.418Z,9.74
2022-11-02T18:45:40.256Z,9.82
2022-11-02T18:50:38.962Z,9.85
2022-11-02T18:55:39.795Z,9.96
2022-11-02T19:00:38.741Z,9.93
2022-11-02T19:11:00.048Z,9.59
2022-11-02T19:16:00.211Z,9.18
2022-11-02T19:20:58.912Z,9.33
2022-11-02T19:25:57.542Z,9.14
2022-11-02T19:30:56.416Z,9.14
2022-11-02T19:35:56.280Z,8.91
2022-11-02T19:41:02.844Z,8.87
2022-11-02T19:46:02.990Z,8.51
2022-11-02T19:51:10.877Z,8.57
2022-11-02T19:56:13.087Z,8.35
2022-11-02T20:01:14.515Z,8.24
2022-11-02T20:06:20.949Z,7.98
2022-11-02T20:11:20.810Z,7.83
2022-11-02T20:16:20.125Z,7.55
2022-11-02T20:21:21.449Z,7.52
2022-11-02T20:26:23.404Z,7.65
2022-11-02T20:31:25.973Z,7.34
2022-11-02T20:36:24.762Z,7.52
2022-11-02T20:41:24.470Z,7.32
2022-11-02T20:46:42.471Z,7.14
2022-11-02T20:51:42.108Z,7.43
2022-11-02T20:56:40.850Z,7.23
2022-11-02T21:01:39.797Z,7.11
2022-11-02T21:06:38.711Z,7.25
2022-11-02T21:11:56.267Z,7.35
2022-11-02T21:16:55.580Z,7.35
2022-11-02T21:21:59.355Z,7.44
2022-11-02T21:26:58.919Z,7.08
2022-11-02T21:31:58.287Z,7.08
2022-11-02T21:36:57.075Z,6.80
2022-11-02T21:41:55.789Z,7.08
2022-11-02T21:46:55.155Z,6.84
2022-11-02T21:51:54.054Z,6.74
2022-11-02T21:56:53.014Z,6.79
2022-11-02T22:01:51.934Z,6.91
2022-11-02T22:07:03.543Z,7.00
2022-11-02T22:12:21.038Z,6.65
2022-11-02T22:17:47.916Z,6.90
2022-11-02T22:22:38.535Z,7.14
2022-11-02T22:27:37.513Z,6.89
2022-11-02T22:32:36.169Z,6.49
2022-11-02T22:37:53.427Z,6.46
2022-11-02T22:42:55.983Z,6.62
2022-11-02T22:47:55.021Z,6.59
2022-11-02T22:52:55.132Z,6.74
2022-11-02T22:57:59.722Z,6.73
2022-11-02T23:02:59.443Z,6.57
2022-11-02T23:08:01.399Z,6.44
2022-11-02T23:13:00.453Z,6.38
2022-11-02T23:17:59.406Z,6.33
2022-11-02T23:23:20.037Z,6.20
2022-11-02T23:28:37.607Z,6.41
2022-11-02T23:33:36.518Z,6.09
2022-11-02T23:38:53.738Z,6.44
2022-11-02T23:44:11.321Z,6.59
2022-11-02T23:49:11.191Z,6.28
2022-11-02T23:54:28.622Z,6.25
2022-11-02T23:59:27.485Z,6.32
